YUL weather

Montreal / Pierre Elliott Trudeau International Airport
Montréal, Quebec, Canada

Public forecast

Using degrees Celsius for public forecast. Weather courtesy of forecast.io.

METAR (pilot weather report)

Retrieved 2018/06/22 22:00 UTC (14 minutes ago):

CYUL 222200Z 16004KT 30SM BKN250 25/04 A2994 RMK CI7 SLP140 DENSITY ALT 1300FT

TAF (pilot weather forecast)

Retrieved 2018/06/22 21:42 UTC (32 minutes ago):

TAF CYUL 222038Z 2221/2318 28005KT P6SM SCT250 BECMG 2221/2223 VRB03KT FM230800 VRB03KT P6SM BKN200 FM231100 18007KT P6SM OVC150 RMK NXT FCST BY 230000Z